CheckWX is a tool to help pilots better visualize weather data.  It is not intended as a substitute for an official pre-flight weather briefing.

07:13:40 UTC

SBBR TAF
Presidente Juscelino Kubistschek International Airport
Brasília, Brazil
TAF SBBR 200400Z 2006/2106 28005KT CAVOK TN13/2009Z TX28/2017Z BECMG 2013/2015 08010KT 9999 SCT040 BECMG 2019/2021 12007KT CAVOK RMK PAZ

Jun-20@
06:00 UTC

Jun-20 @ 06:00 UTC

Jun-20@
13:00 UTC

Jun-20 @ 13:00 UTC

TAF SBBR 200400Z 2006/2106 28005KT CAVOK TN13/2009Z TX28/2017Z
Wind
  • 280° at 5 KTS
Cloud Levels
  • No significant clouds

Jun-20@
13:00 UTC

Jun-20 @ 13:00 UTC

Jun-20@
19:00 UTC

Jun-20 @ 19:00 UTC

BECMG 2013/2015 08010KT 9999 SCT040

Becoming

Becoming Conditions expected by Thu, Jun 20, 2019 @ 15:00 UTC

Wind
  • 080° at 10 KTS
Cloud Levels
  • Scattered at 4,000' AGL

Jun-20@
19:00 UTC

Jun-20 @ 19:00 UTC

Jun-21@
06:00 UTC

Jun-21 @ 06:00 UTC

BECMG 2019/2021 12007KT CAVOK RMK PAZ

Becoming

Becoming Conditions expected by Thu, Jun 20, 2019 @ 21:00 UTC

Wind
  • 120° at 7 KTS
Conditions
No significant weather
Cloud Levels
  • No significant clouds